Time;durP1;ratioP1;P1;durP2;ratioP2;P2;SDS_P1;SDS_P2;PMS_P1;PMS_P2;Temp;Humidity;BMP_temperature;BMP_pressure;BME280_temperature;BME280_humidity;BME280_pressure;Samples;Min_cycle;Max_cycle;Signal;HPM_P1;HPM_P2
2022/04/13 00:03:15;;;;;;;17.60;6.20;;;;;;;13.99;75.96;101155.66;10340298;28;20386;-74
2022/04/13 00:08:15;;;;;;;10.63;5.90;;;;;;;13.96;74.43;101154.19;10339598;28;20042;-75
2022/04/13 00:13:15;;;;;;;5.80;4.97;;;;;;;13.95;72.80;101144.38;10338657;28;20046;-75
2022/04/13 00:18:16;;;;;;;8.40;5.32;;;;;;;13.86;72.38;101156.53;10339159;28;20060;-75
2022/04/13 00:23:16;;;;;;;10.18;5.93;;;;;;;13.68;72.42;101149.03;10352633;28;20490;-75
2022/04/13 00:28:18;;;;;;;5.47;4.85;;;;;;;13.58;75.54;101160.34;10338232;28;20045;-74
2022/04/13 00:33:19;;;;;;;10.88;6.75;;;;;;;13.65;76.96;101163.03;10338912;28;20261;-74
2022/04/13 00:38:21;;;;;;;17.40;6.18;;;;;;;13.71;77.90;101175.81;10338364;28;20458;-75
2022/04/13 00:43:22;;;;;;;29.63;7.35;;;;;;;13.77;76.29;101169.53;10353470;28;20121;-75
2022/04/13 00:48:31;;;;;;;7.30;5.70;;;;;;;13.82;76.02;101168.91;10337552;28;20038;-74
2022/04/13 00:53:31;;;;;;;15.30;6.80;;;;;;;13.82;75.76;101172.47;10338143;28;20035;-75
2022/04/13 00:58:32;;;;;;;11.43;6.95;;;;;;;13.78;74.67;101175.81;10307149;28;20080;-75
2022/04/13 01:03:33;;;;;;;19.55;6.13;;;;;;;13.66;76.03;101178.34;10340437;28;20370;-75
2022/04/13 01:08:33;;;;;;;11.52;7.70;;;;;;;13.52;76.69;101180.22;10337636;28;20042;-75
2022/04/13 01:13:33;;;;;;;15.15;6.30;;;;;;;13.40;77.62;101187.34;10338435;28;20089;-75
2022/04/13 01:18:34;;;;;;;13.13;8.20;;;;;;;13.43;77.48;101192.34;10335400;28;20038;-74
2022/04/13 01:23:34;;;;;;;8.88;6.82;;;;;;;13.51;77.87;101180.44;10350295;28;20042;-74
2022/04/13 01:28:35;;;;;;;15.65;7.82;;;;;;;13.53;77.62;101176.47;10338583;28;20347;-75
2022/04/13 01:33:35;;;;;;;10.35;7.20;;;;;;;13.53;77.23;101183.78;10337168;28;20057;-75
2022/04/13 01:38:35;;;;;;;11.45;6.88;;;;;;;13.47;76.82;101190.91;10337405;28;20046;-75
2022/04/13 01:43:36;;;;;;;8.57;6.43;;;;;;;13.43;79.43;101186.91;10334703;28;20359;-75
2022/04/13 01:48:36;;;;;;;11.70;6.47;;;;;;;13.37;80.71;101207.66;10335233;28;20042;-75
2022/04/13 01:53:37;;;;;;;15.50;6.55;;;;;;;13.38;79.21;101197.59;10335009;28;20038;-74
2022/04/13 01:58:38;;;;;;;11.82;5.93;;;;;;;13.33;77.89;101209.09;10335474;28;20125;-75
2022/04/13 02:03:38;;;;;;;11.20;6.03;;;;;;;13.30;78.89;101212.22;10335903;28;20530;-75
2022/04/13 02:08:39;;;;;;;11.95;5.95;;;;;;;13.29;80.76;101212.44;10332835;28;20172;-74
2022/04/13 02:13:39;;;;;;;10.15;5.85;;;;;;;13.34;83.59;101223.56;10334532;28;20045;-75
2022/04/13 02:18:40;;;;;;;6.43;5.82;;;;;;;13.38;84.29;101222.94;10334640;28;20390;-75
2022/04/13 02:23:42;;;;;;;14.23;8.20;;;;;;;13.35;81.92;101225.22;10340885;28;20418;-75
2022/04/13 02:28:42;;;;;;;8.25;6.65;;;;;;;13.26;84.18;101236.28;10342349;28;20065;-75
2022/04/13 02:33:43;;;;;;;8.07;7.35;;;;;;;13.23;83.77;101233.13;10342967;28;20046;-74
2022/04/13 02:38:43;;;;;;;13.73;6.93;;;;;;;13.17;83.27;101226.63;10357597;28;20066;-74
2022/04/13 02:43:44;;;;;;;10.05;7.55;;;;;;;13.06;86.06;101232.69;10342587;28;20035;-74
2022/04/13 02:48:44;;;;;;;10.88;8.13;;;;;;;12.99;86.27;101229.94;10357019;28;20031;-74
2022/04/13 02:53:44;;;;;;;13.73;6.68;;;;;;;12.95;87.23;101220.50;10342327;28;20061;-74
2022/04/13 02:58:45;;;;;;;9.60;7.10;;;;;;;12.88;86.71;101227.81;10379215;28;20034;-75
2022/04/13 03:03:45;;;;;;;10.50;6.80;;;;;;;12.89;85.56;101231.38;10394844;28;20038;-75
2022/04/13 03:08:46;;;;;;;8.07;7.15;;;;;;;12.95;88.94;101247.69;10378737;28;20038;-74
2022/04/13 03:13:46;;;;;;;13.93;8.20;;;;;;;12.99;91.07;101243.53;10378031;28;20057;-74
2022/04/13 03:18:47;;;;;;;12.93;7.20;;;;;;;13.07;87.71;101249.81;10356931;28;20034;-75
2022/04/13 03:23:47;;;;;;;9.25;8.30;;;;;;;13.04;89.55;101262.78;10358691;28;20038;-74
2022/04/13 03:28:47;;;;;;;18.40;8.07;;;;;;;13.04;90.54;101267.38;10346500;28;20062;-75
2022/04/13 03:33:48;;;;;;;13.25;7.45;;;;;;;13.03;90.73;101271.16;10340401;28;20414;-74
2022/04/13 03:38:48;;;;;;;11.20;6.93;;;;;;;13.02;89.64;101285.78;10340022;28;20100;-74
2022/04/13 03:43:49;;;;;;;12.38;8.75;;;;;;;13.01;89.87;101279.50;10339894;28;20083;-74
2022/04/13 03:48:49;;;;;;;16.13;8.50;;;;;;;13.03;88.74;101285.56;10338712;28;20069;-75
2022/04/13 03:53:49;;;;;;;9.68;7.35;;;;;;;12.99;89.90;101297.06;10338064;28;20048;-74
2022/04/13 03:58:50;;;;;;;14.40;8.85;;;;;;;12.87;89.67;101288.66;10354308;28;20121;-74
2022/04/13 04:03:50;;;;;;;11.07;8.82;;;;;;;12.68;90.69;101294.84;10352914;28;20037;-74
2022/04/13 04:08:51;;;;;;;11.48;7.90;;;;;;;12.49;91.45;101301.84;10339343;28;20463;-75
2022/04/13 04:13:51;;;;;;;8.90;7.35;;;;;;;12.32;90.94;101298.63;10353885;28;20477;-74
2022/04/13 04:18:53;;;;;;;18.00;8.07;;;;;;;12.18;90.05;101297.69;10339988;28;20034;-74
2022/04/13 04:23:53;;;;;;;12.30;7.50;;;;;;;12.02;90.24;101309.69;10342995;28;20105;-75
2022/04/13 04:28:54;;;;;;;10.43;5.95;;;;;;;11.91;89.58;101323.78;10338795;28;20160;-74
2022/04/13 04:33:54;;;;;;;11.15;6.78;;;;;;;11.80;90.46;101332.41;10337237;28;20066;-74
2022/04/13 04:38:54;;;;;;;16.15;9.32;;;;;;;11.68;90.01;101337.56;10335229;28;20046;-75
2022/04/13 04:43:55;;;;;;;6.95;6.30;;;;;;;11.57;89.09;101346.19;10350239;28;20030;-74
2022/04/13 04:48:55;;;;;;;13.60;6.70;;;;;;;11.52;89.18;101345.91;10336138;28;20462;-74
2022/04/13 04:53:56;;;;;;;14.82;7.13;;;;;;;11.43;88.91;101366.06;10335848;28;20122;-74
2022/04/13 04:58:56;;;;;;;10.88;8.65;;;;;;;11.35;87.94;101365.13;10335756;28;20101;-74
2022/04/13 05:03:57;;;;;;;12.30;8.50;;;;;;;11.33;88.97;101372.66;10319211;28;20042;-75
2022/04/13 05:08:57;;;;;;;14.55;10.43;;;;;;;11.33;89.27;101371.81;10275049;28;20066;-74
2022/04/13 05:13:58;;;;;;;13.63;9.85;;;;;;;11.34;88.01;101374.31;10295775;28;20133;-74
2022/04/13 05:18:58;;;;;;;15.70;11.45;;;;;;;11.40;88.29;101376.25;10294130;28;20471;-74
2022/04/13 05:23:58;;;;;;;12.75;9.88;;;;;;;11.45;88.07;101380.25;10294463;28;20249;-72
2022/04/13 05:28:59;;;;;;;17.35;10.80;;;;;;;11.58;88.78;101378.56;10292873;28;20074;-75
2022/04/13 05:33:59;;;;;;;17.25;11.77;;;;;;;11.73;88.39;101393.94;10294768;28;20089;-74
2022/04/13 05:39:00;;;;;;;34.70;12.65;;;;;;;11.90;90.26;101392.69;10297072;28;20042;-75
2022/04/13 05:44:00;;;;;;;20.92;11.27;;;;;;;12.06;88.94;101402.41;10293598;28;20109;-75
2022/04/13 05:49:01;;;;;;;18.15;11.98;;;;;;;12.16;91.03;101405.66;10308949;28;20049;-75
2022/04/13 05:54:01;;;;;;;12.45;9.43;;;;;;;12.36;92.47;101407.69;10275964;28;20097;-76
2022/04/13 05:59:01;;;;;;;14.32;9.60;;;;;;;12.68;91.78;101420.69;10275783;28;20035;-74
2022/04/13 06:04:02;;;;;;;16.90;8.40;;;;;;;12.90;90.67;101421.44;10292112;28;20116;-73
2022/04/13 06:09:02;;;;;;;12.20;8.68;;;;;;;12.85;95.09;101432.06;10294059;28;20118;-75
2022/04/13 06:14:02;;;;;;;28.02;9.50;;;;;;;12.88;94.73;101444.44;10291375;28;20042;-76
2022/04/13 06:19:03;;;;;;;12.70;7.65;;;;;;;12.94;93.49;101452.63;10292043;28;20058;-75
2022/04/13 06:24:04;;;;;;;10.70;8.75;;;;;;;12.96;93.96;101457.88;10275340;28;20105;-75
2022/04/13 06:29:04;;;;;;;7.60;6.88;;;;;;;12.97;94.06;101462.25;10294033;28;20038;-75
2022/04/13 06:34:04;;;;;;;18.80;11.20;;;;;;;13.01;92.38;101469.81;10292727;28;20122;-75
2022/04/13 06:39:05;;;;;;;13.52;10.10;;;;;;;13.10;92.19;101473.22;10300180;28;20039;-76
2022/04/13 06:44:06;;;;;;;13.98;9.35;;;;;;;13.32;92.87;101486.75;10298368;28;20041;-75
2022/04/13 06:49:06;;;;;;;17.20;9.10;;;;;;;13.59;93.30;101501.31;10259895;28;20045;-75
2022/04/13 06:54:06;;;;;;;12.75;7.97;;;;;;;13.91;91.75;101505.19;10293076;28;20039;-75
2022/04/13 06:59:07;;;;;;;12.55;7.70;;;;;;;14.31;90.97;101510.75;10292566;28;20047;-75
2022/04/13 07:04:07;;;;;;;13.95;8.90;;;;;;;14.82;91.38;101508.28;10292323;28;20394;-75
2022/04/13 07:09:08;;;;;;;9.23;7.53;;;;;;;14.92;89.20;101516.03;10298805;28;20043;-75
2022/04/13 07:14:08;;;;;;;22.55;8.00;;;;;;;14.76;88.19;101528.22;10299137;28;20054;-75
2022/04/13 07:19:09;;;;;;;14.65;8.48;;;;;;;14.45;88.92;101527.94;10299481;28;20042;-75
2022/04/13 07:24:10;;;;;;;12.60;8.05;;;;;;;14.46;88.08;101532.38;10298364;28;20383;-74
2022/04/13 07:29:11;;;;;;;8.27;6.63;;;;;;;14.73;87.08;101536.81;10299346;28;20070;-75
2022/04/13 07:34:11;;;;;;;12.68;7.22;;;;;;;15.11;86.67;101547.06;10299191;28;20438;-73
2022/04/13 07:39:12;;;;;;;17.70;8.02;;;;;;;15.30;86.94;101559.00;10298305;28;20038;-73
2022/04/13 07:44:12;;;;;;;14.23;6.68;;;;;;;15.03;86.54;101560.94;10296242;28;20046;-75
2022/04/13 07:49:12;;;;;;;11.70;7.45;;;;;;;14.91;85.74;101563.47;10297484;28;20340;-74
2022/04/13 07:54:13;;;;;;;12.18;7.93;;;;;;;14.75;86.44;101578.34;10296467;28;20034;-74
2022/04/13 07:59:13;;;;;;;14.85;7.20;;;;;;;14.69;87.65;101573.72;10297428;28;20126;-74
2022/04/13 08:04:14;;;;;;;16.15;7.68;;;;;;;14.76;86.61;101565.56;10300490;28;20042;-74
2022/04/13 08:09:14;;;;;;;21.15;7.35;;;;;;;14.90;85.39;101569.97;10296396;28;20386;-74
2022/04/13 08:14:14;;;;;;;9.35;6.68;;;;;;;15.11;84.66;101575.19;10297638;28;20038;-74
2022/04/13 08:19:15;;;;;;;8.98;5.97;;;;;;;15.09;85.63;101588.22;10296924;28;20039;-75
2022/04/13 08:24:18;;;;;;;11.07;5.88;;;;;;;15.11;85.67;101597.00;10279127;28;20030;-74
2022/04/13 08:29:19;;;;;;;6.10;5.45;;;;;;;15.00;85.66;101600.38;10297758;28;20058;-74
2022/04/13 08:34:19;;;;;;;11.82;6.05;;;;;;;15.19;85.28;101600.56;10295740;28;20057;-75
2022/04/13 08:39:20;;;;;;;14.35;6.07;;;;;;;15.43;84.02;101612.72;10297319;28;20154;-75
2022/04/13 08:44:28;;;;;;;13.93;5.90;;;;;;;15.65;83.18;101588.75;10296047;28;20035;-75
2022/04/13 08:49:28;;;;;;;12.38;6.10;;;;;;;15.71;83.88;101596.13;10278759;28;20092;-75
2022/04/13 08:54:35;;;;;;;9.32;4.72;;;;;;;15.71;82.79;101601.59;10297632;28;20031;-75
2022/04/13 08:59:42;;;;;;;9.55;5.45;;;;;;;15.96;82.46;101612.63;10298455;28;20049;-75
2022/04/13 09:04:45;;;;;;;;;;;;;;;16.15;82.19;101640.94;10296613;28;20073;-75
2022/04/13 09:09:46;;;;;;;11.43;6.57;;;;;;;16.06;82.65;101642.22;10295882;28;19914;-74
2022/04/13 09:14:47;;;;;;;11.68;5.82;;;;;;;15.88;82.14;101648.38;10294503;28;20065;-75
2022/04/13 09:19:47;;;;;;;15.82;6.13;;;;;;;15.95;81.95;101658.25;10294615;28;20085;-75
2022/04/13 09:24:51;;;;;;;7.22;5.82;;;;;;;15.98;82.12;101657.78;10294508;28;20062;-74
2022/04/13 09:29:51;;;;;;;8.18;6.25;;;;;;;15.88;81.60;101670.22;10295657;28;20499;-74
2022/04/13 09:34:52;;;;;;;6.45;5.65;;;;;;;15.84;82.24;101682.63;10294591;28;20110;-75
2022/04/13 09:39:52;;;;;;;17.40;7.13;;;;;;;15.73;83.13;101678.63;10294673;28;20039;-74
2022/04/13 09:44:56;;;;;;;12.63;7.15;;;;;;;15.47;83.61;101685.78;10293910;28;20050;-74
2022/04/13 09:49:57;;;;;;;19.92;8.00;;;;;;;15.39;83.41;101696.94;10293699;28;20027;-75
2022/04/13 09:54:57;;;;;;;15.55;7.28;;;;;;;15.34;84.02;101688.50;10293533;28;20038;-75
2022/04/13 10:00:06;;;;;;;18.08;7.20;;;;;;;15.26;83.53;101689.56;10277591;28;20038;-74
2022/04/13 10:05:08;;;;;;;9.50;8.15;;;;;;;15.29;84.38;101696.50;10259970;28;20034;-76
2022/04/13 10:10:22;;;;;;;18.77;8.32;;;;;;;15.50;83.74;101693.53;10276307;28;20455;-75
2022/04/13 10:15:23;;;;;;;17.02;8.55;;;;;;;15.70;83.41;101714.59;10293814;28;20041;-77
2022/04/13 10:20:27;;;;;;;11.68;7.72;;;;;;;15.91;82.73;101711.59;10276691;28;20031;-73
2022/04/13 10:25:28;;;;;;;10.25;8.80;;;;;;;16.04;82.71;101706.09;10277186;28;20427;-74
2022/04/13 10:30:34;;;;;;;17.58;8.77;;;;;;;15.98;82.01;101711.59;10291809;28;20127;-75
2022/04/13 10:35:39;;;;;;;16.00;7.90;;;;;;;16.12;81.78;101712.41;10291152;28;20039;-74
2022/04/13 10:40:41;;;;;;;12.50;7.10;;;;;;;16.36;81.44;101710.84;10292403;28;20058;-74
2022/04/13 10:45:45;;;;;;;10.77;7.07;;;;;;;16.58;80.49;101708.66;10299812;28;20510;-76
2022/04/13 10:50:46;;;;;;;8.73;6.00;;;;;;;16.58;80.09;101712.22;10301731;28;20035;-75
2022/04/13 10:55:52;;;;;;;14.60;5.68;;;;;;;16.76;79.67;101707.97;10299109;28;20125;-75
2022/04/13 11:00:57;;;;;;;14.88;6.75;;;;;;;17.03;79.18;101722.31;10298773;28;20061;-75
2022/04/13 11:05:57;;;;;;;9.27;5.97;;;;;;;17.43;78.75;101714.66;10300765;28;20063;-75
2022/04/13 11:10:58;;;;;;;9.25;6.25;;;;;;;17.75;77.17;101712.69;10299316;28;20039;-76
2022/04/13 11:16:16;;;;;;;6.45;5.85;;;;;;;17.96;75.40;101713.34;10304309;28;20352;-74
2022/04/13 11:21:16;;;;;;;15.27;6.45;;;;;;;18.50;74.36;101722.63;10288637;28;20458;-75
2022/04/13 11:26:38;;;;;;;6.32;5.70;;;;;;;18.36;72.14;101719.22;10282648;28;20058;-75
2022/04/13 11:32:00;;;;;;;7.68;4.88;;;;;;;18.64;71.54;101715.94;10297871;28;20403;-75
2022/04/13 11:37:02;;;;;;;4.78;4.38;;;;;;;18.57;71.76;101721.50;10299365;28;20031;-75
2022/04/13 11:42:02;;;;;;;7.55;4.65;;;;;;;18.90;68.35;101730.38;10298468;28;20031;-75
2022/04/13 11:47:17;;;;;;;9.05;3.80;;;;;;;18.57;68.85;101734.38;10298733;28;20051;-75
2022/04/13 11:52:56;;;;;;;10.07;5.78;;;;;;;18.53;70.50;101741.38;10295525;28;20482;-74
2022/04/13 11:58:08;;;;;;;8.48;5.40;;;;;;;18.67;70.29;101744.81;10298609;28;20027;-75
2022/04/13 12:03:38;;;;;;;17.00;5.68;;;;;;;19.36;71.27;101753.56;10296721;28;20058;-75
2022/04/13 12:08:39;;;;;;;5.57;5.13;;;;;;;19.97;68.18;101750.44;10297219;28;20047;-75
2022/04/13 12:13:52;;;;;;;15.02;6.40;;;;;;;20.86;67.16;101763.06;10297440;28;20042;-75
2022/04/13 12:18:53;;;;;;;8.95;5.68;;;;;;;21.31;66.35;101754.00;10296852;28;20062;-75
2022/04/13 12:23:54;;;;;;;15.40;6.20;;;;;;;21.72;65.86;101757.47;10295802;28;20035;-75
2022/04/13 12:28:56;;;;;;;10.18;4.40;;;;;;;21.74;63.67;101750.63;10298836;28;20054;-76
2022/04/13 12:34:00;;;;;;;6.60;5.40;;;;;;;21.50;62.99;101751.88;10297520;28;20066;-75
2022/04/13 12:39:01;;;;;;;14.07;5.78;;;;;;;21.50;64.02;101751.88;10296624;28;20027;-75
2022/04/13 12:44:01;;;;;;;7.28;4.88;;;;;;;21.39;60.75;101752.81;10298407;28;20035;-76
2022/04/13 12:49:05;;;;;;;11.68;5.68;;;;;;;21.58;60.19;101752.31;10296303;28;20557;-76
2022/04/13 12:54:07;;;;;;;6.47;4.32;;;;;;;21.99;57.72;101741.09;10295148;28;20033;-75
2022/04/13 12:59:07;;;;;;;4.97;3.30;;;;;;;22.56;58.84;101748.22;10296133;28;20462;-76
2022/04/13 13:04:07;;;;;;;6.60;2.95;;;;;;;22.03;58.50;101759.63;10295352;28;20122;-75
2022/04/13 13:09:08;;;;;;;2.65;2.40;;;;;;;21.71;53.40;101767.69;10295406;28;20117;-75
2022/04/13 13:14:15;;;;;;;4.80;2.35;;;;;;;21.18;57.14;101757.06;10294097;28;20352;-74
2022/04/13 13:19:19;;;;;;;2.15;1.55;;;;;;;21.46;58.97;101770.00;10278931;28;20037;-74
2022/04/13 13:24:29;;;;;;;4.10;2.55;;;;;;;21.52;57.44;101761.56;10295432;28;20129;-74
2022/04/13 13:29:30;;;;;;;5.63;2.92;;;;;;;21.67;57.44;101765.69;10295623;28;20134;-73
2022/04/13 13:34:30;;;;;;;7.40;3.20;;;;;;;21.92;57.17;101756.94;10294534;28;20046;-75
2022/04/13 13:39:31;;;;;;;2.50;2.30;;;;;;;21.99;52.95;101766.75;10297129;28;20479;-74
2022/04/13 13:44:31;;;;;;;7.28;3.25;;;;;;;21.67;54.52;101766.50;10295867;28;20059;-74
2022/04/13 13:49:32;;;;;;;2.50;2.40;;;;;;;21.05;54.96;101770.06;10295245;28;20051;-74
2022/04/13 13:54:35;;;;;;;3.67;2.17;;;;;;;20.97;58.12;101769.63;10293927;28;20038;-74
2022/04/13 13:59:35;;;;;;;11.35;1.90;;;;;;;21.03;57.93;101772.25;10293334;28;20035;-74
2022/04/13 14:04:35;;;;;;;2.33;2.15;;;;;;;21.32;57.13;101763.97;10292595;28;20110;-74
2022/04/13 14:09:36;;;;;;;9.25;2.35;;;;;;;20.95;58.04;101775.38;10293609;28;20117;-74
2022/04/13 14:14:36;;;;;;;3.25;2.47;;;;;;;20.38;56.82;101767.84;10294627;28;20118;-75
2022/04/13 14:19:37;;;;;;;3.35;1.55;;;;;;;20.12;57.65;101777.44;10292744;28;20039;-74
2022/04/13 14:24:37;;;;;;;3.20;2.50;;;;;;;19.97;57.41;101764.19;10293010;28;20479;-74
2022/04/13 14:29:38;;;;;;;3.80;2.83;;;;;;;20.28;57.95;101769.53;10291024;28;20506;-75
2022/04/13 14:34:38;;;;;;;5.00;3.00;;;;;;;20.27;56.69;101767.88;10292457;28;20129;-74
2022/04/13 14:39:39;;;;;;;2.97;2.78;;;;;;;20.06;56.27;101761.91;10294138;28;20042;-73
2022/04/13 14:44:40;;;;;;;4.10;2.65;;;;;;;20.00;58.49;101751.84;10293797;28;20042;-74
2022/04/13 14:49:40;;;;;;;4.50;2.85;;;;;;;19.80;57.39;101746.72;10293253;28;20127;-74
2022/04/13 14:54:41;;;;;;;3.78;3.05;;;;;;;20.31;58.99;101749.81;10293296;28;20035;-76
2022/04/13 14:59:41;;;;;;;7.28;2.58;;;;;;;20.57;58.82;101745.72;10293761;28;20042;-75
2022/04/13 15:04:42;;;;;;;6.18;1.48;;;;;;;19.90;56.17;101749.72;10294543;28;20031;-74
2022/04/13 15:09:42;;;;;;;7.60;3.08;;;;;;;19.57;58.90;101736.53;10293478;28;20473;-75
2022/04/13 15:14:42;;;;;;;3.70;2.13;;;;;;;19.24;57.85;101742.53;10292977;28;20486;-74
2022/04/13 15:19:43;;;;;;;1.60;1.50;;;;;;;18.86;58.61;101742.88;10274549;28;20034;-74
2022/04/13 15:24:43;;;;;;;1.35;1.15;;;;;;;18.56;58.75;101740.94;10292608;28;20070;-72
2022/04/13 15:29:44;;;;;;;1.38;1.27;;;;;;;18.24;59.25;101760.28;10296595;28;20125;-74
2022/04/13 15:34:45;;;;;;;3.72;1.90;;;;;;;18.29;60.33;101756.88;10298311;28;20118;-75
2022/04/13 15:39:45;;;;;;;5.72;2.17;;;;;;;18.08;60.95;101766.34;10299494;28;20479;-75
2022/04/13 15:44:45;;;;;;;4.55;2.15;;;;;;;17.94;61.98;101782.09;10298993;28;20047;-74
2022/04/13 15:49:46;;;;;;;1.88;1.60;;;;;;;18.05;62.02;101775.03;10282668;28;20463;-73
2022/04/13 15:54:49;;;;;;;2.78;2.25;;;;;;;17.78;63.34;101777.19;10299117;28;20121;-74
2022/04/13 15:59:49;;;;;;;4.63;2.13;;;;;;;17.73;64.02;101769.59;10300457;28;20082;-75
2022/04/13 16:04:50;;;;;;;6.72;2.22;;;;;;;17.76;63.96;101774.63;10300626;28;20097;-74
2022/04/13 16:09:50;;;;;;;2.38;1.77;;;;;;;17.69;64.42;101773.03;10298851;28;20078;-74
2022/04/13 16:14:50;;;;;;;5.50;2.92;;;;;;;17.41;64.46;101777.00;10297454;28;20039;-74
2022/04/13 16:19:56;;;;;;;5.40;2.28;;;;;;;17.21;65.05;101779.91;10296833;28;20034;-75
2022/04/13 16:24:56;;;;;;;8.73;1.65;;;;;;;17.13;65.38;101786.47;10297372;28;20447;-75
2022/04/13 16:29:57;;;;;;;2.45;2.25;;;;;;;17.12;65.73;101800.38;10297943;28;20109;-74
2022/04/13 16:35:00;;;;;;;14.23;2.55;;;;;;;17.04;65.57;101793.25;10297745;28;20039;-75
2022/04/13 16:40:02;;;;;;;5.30;1.58;;;;;;;16.85;66.07;101808.72;10295678;28;20061;-73
2022/04/13 16:45:03;;;;;;;4.32;2.42;;;;;;;16.72;66.68;101817.78;10297559;28;20027;-74
2022/04/13 16:50:04;;;;;;;2.47;2.35;;;;;;;16.61;66.92;101812.13;10296201;28;20039;-74
2022/04/13 16:55:08;;;;;;;9.38;1.83;;;;;;;16.60;67.05;101810.47;10296457;28;20038;-74
2022/04/13 17:00:09;;;;;;;5.93;2.95;;;;;;;16.45;68.16;101806.06;10294859;28;20058;-74
2022/04/13 17:05:10;;;;;;;3.58;2.80;;;;;;;16.37;67.88;101814.53;10294805;28;20062;-74
2022/04/13 17:10:10;;;;;;;3.67;2.65;;;;;;;16.21;68.73;101825.91;10294498;28;20038;-74
2022/04/13 17:15:11;;;;;;;3.13;2.88;;;;;;;16.16;69.37;101817.50;10294292;28;20035;-74
2022/04/13 17:20:11;;;;;;;11.38;4.03;;;;;;;16.04;69.88;101820.84;10296245;28;20034;-75
2022/04/13 17:25:12;;;;;;;7.50;4.65;;;;;;;16.03;70.75;101835.56;10277495;28;20034;-75
2022/04/13 17:30:12;;;;;;;7.85;4.32;;;;;;;15.92;71.07;101830.75;10278761;28;20043;-74
2022/04/13 17:35:14;;;;;;;4.75;2.80;;;;;;;15.87;70.29;101841.47;10294015;28;20081;-74
2022/04/13 17:40:14;;;;;;;6.70;2.78;;;;;;;15.83;69.63;101856.59;10294354;28;20125;-75
2022/04/13 17:45:15;;;;;;;2.40;2.25;;;;;;;15.73;70.40;101853.41;10292706;28;20391;-74
2022/04/13 17:50:15;;;;;;;3.13;1.80;;;;;;;15.59;70.58;101856.09;10295231;28;20129;-75
2022/04/13 17:55:15;;;;;;;4.88;4.00;;;;;;;15.46;71.18;101850.63;10293131;28;20391;-74
2022/04/13 18:00:17;;;;;;;9.95;2.75;;;;;;;15.36;70.85;101861.09;10294090;28;20511;-75
2022/04/13 18:05:18;;;;;;;4.45;3.28;;;;;;;15.26;69.90;101863.38;10293643;28;20077;-75
2022/04/13 18:10:22;;;;;;;2.65;2.45;;;;;;;15.15;71.11;101866.69;10283364;28;20035;-74
2022/04/13 18:15:22;;;;;;;6.47;2.38;;;;;;;15.03;71.98;101853.66;10292155;28;20038;-74
2022/04/13 18:20:25;;;;;;;3.47;2.90;;;;;;;14.95;73.76;101850.25;10311501;28;20038;-75
2022/04/13 18:25:26;;;;;;;3.08;2.53;;;;;;;14.86;73.10;101855.03;10306568;28;20039;-75
2022/04/13 18:30:26;;;;;;;5.93;3.08;;;;;;;14.74;72.33;101856.63;10312558;28;20055;-74
2022/04/13 18:35:26;;;;;;;4.10;3.05;;;;;;;14.64;72.30;101863.31;10278872;28;20042;-76
2022/04/13 18:40:27;;;;;;;6.85;2.38;;;;;;;14.53;72.84;101872.03;10312819;28;20054;-73
2022/04/13 18:45:27;;;;;;;8.35;2.58;;;;;;;14.46;72.85;101881.19;10311100;28;20054;-75
2022/04/13 18:50:29;;;;;;;1.38;1.27;;;;;;;14.37;72.41;101894.13;10309078;28;20038;-73
2022/04/13 18:55:31;;;;;;;2.83;2.63;;;;;;;14.23;72.74;101895.91;10306935;28;20066;-73
2022/04/13 19:00:31;;;;;;;3.97;2.85;;;;;;;14.07;72.89;101905.22;10293422;28;20094;-74
2022/04/13 19:05:32;;;;;;;3.72;3.03;;;;;;;14.00;72.92;101923.34;10320124;28;20237;-75
2022/04/13 19:10:32;;;;;;;3.13;2.92;;;;;;;13.93;72.95;101919.72;10320247;28;20035;-75
2022/04/13 19:15:33;;;;;;;3.92;3.13;;;;;;;13.83;72.98;101925.50;10324214;28;20054;-79
2022/04/13 19:20:33;;;;;;;6.13;3.90;;;;;;;13.76;73.30;101929.19;10310654;28;20119;-75
2022/04/13 19:25:34;;;;;;;6.78;4.05;;;;;;;13.75;74.31;101932.94;10315437;28;20030;-75
2022/04/13 19:30:34;;;;;;;14.75;5.00;;;;;;;13.72;74.75;101945.09;10312329;28;20058;-78
2022/04/13 19:35:35;;;;;;;5.63;4.45;;;;;;;13.70;74.48;101953.44;10295870;28;20041;-76
2022/04/13 19:40:35;;;;;;;9.85;4.18;;;;;;;13.70;74.42;101969.75;10305968;28;20070;-76
2022/04/13 19:45:36;;;;;;;5.72;4.38;;;;;;;13.66;74.49;101979.34;10316445;28;20124;-76
2022/04/13 19:50:36;;;;;;;14.00;5.03;;;;;;;13.65;75.66;101988.53;10305332;28;20073;-77
2022/04/13 19:55:36;;;;;;;5.68;4.90;;;;;;;13.62;75.48;101983.47;10300462;28;20034;-77
2022/04/13 20:00:37;;;;;;;7.00;5.05;;;;;;;13.53;78.53;101973.75;10300636;28;20038;-77
2022/04/13 20:05:38;;;;;;;10.23;5.20;;;;;;;13.56;77.67;101997.00;10300324;28;20053;-77
2022/04/13 20:10:38;;;;;;;9.90;7.22;;;;;;;13.49;77.86;102000.47;10301086;28;20046;-76
2022/04/13 20:15:38;;;;;;;11.25;5.85;;;;;;;13.42;77.87;101991.41;10297581;28;20046;-75
2022/04/13 20:20:39;;;;;;;8.20;6.82;;;;;;;13.36;79.10;101994.88;10297568;28;20035;-75
2022/04/13 20:25:39;;;;;;;8.73;6.88;;;;;;;13.32;80.16;101995.44;10297093;28;20046;-77
2022/04/13 20:30:41;;;;;;;9.63;7.32;;;;;;;13.29;79.27;101995.81;10298680;28;20043;-76
2022/04/13 20:35:41;;;;;;;18.92;8.32;;;;;;;13.24;79.99;102002.69;10299564;28;20035;-76
2022/04/13 20:40:42;;;;;;;10.45;8.88;;;;;;;13.18;81.88;102006.13;10302819;28;20450;-75
2022/04/13 20:45:42;;;;;;;9.80;8.00;;;;;;;13.19;81.13;102015.13;10306844;28;20246;-75
2022/04/13 20:50:43;;;;;;;10.35;7.30;;;;;;;13.17;82.62;102018.00;10296066;28;20042;-76
2022/04/13 20:55:43;;;;;;;17.75;10.52;;;;;;;13.15;80.24;102020.09;10297630;28;20082;-76
2022/04/13 21:00:43;;;;;;;9.68;8.20;;;;;;;13.05;81.42;102003.22;10311873;28;20034;-75
2022/04/13 21:05:44;;;;;;;11.38;9.20;;;;;;;13.07;80.58;102013.91;10296781;28;20031;-75
2022/04/13 21:10:44;;;;;;;13.77;8.85;;;;;;;13.02;79.80;102014.47;10296245;28;20027;-75
2022/04/13 21:15:45;;;;;;;17.20;8.40;;;;;;;12.97;80.84;102014.16;10279183;28;20093;-77
2022/04/13 21:20:45;;;;;;;19.85;10.10;;;;;;;12.97;83.25;102020.44;10280518;28;20038;-76
2022/04/13 21:25:46;;;;;;;8.43;7.55;;;;;;;12.96;80.74;102021.47;10297137;28;20034;-76
2022/04/13 21:30:47;;;;;;;8.70;7.65;;;;;;;12.89;80.44;102015.09;10279818;28;20034;-75
2022/04/13 21:35:48;;;;;;;17.88;8.43;;;;;;;12.89;80.66;102016.97;10295635;28;20042;-75
2022/04/13 21:40:48;;;;;;;11.93;9.25;;;;;;;12.85;80.26;102018.38;10294620;28;20054;-75
2022/04/13 21:45:49;;;;;;;17.52;7.38;;;;;;;12.79;80.94;102017.22;10293370;28;20459;-74
2022/04/13 21:50:49;;;;;;;21.27;11.05;;;;;;;12.73;81.56;102012.53;10292626;28;20134;-75
2022/04/13 21:55:49;;;;;;;10.00;8.95;;;;;;;12.73;81.62;102024.28;10292947;28;20121;-75
2022/04/13 22:00:51;;;;;;;12.80;9.93;;;;;;;12.69;82.51;102022.94;10278127;28;20043;-76
2022/04/13 22:05:52;;;;;;;24.02;10.45;;;;;;;12.67;82.51;102033.16;10296542;28;20034;-73
2022/04/13 22:10:52;;;;;;;13.50;9.50;;;;;;;12.65;84.81;102027.03;10297252;28;20031;-75
2022/04/13 22:15:53;;;;;;;12.18;8.55;;;;;;;12.65;83.11;102032.47;10296779;28;20062;-77
2022/04/13 22:20:53;;;;;;;15.63;8.77;;;;;;;12.59;83.72;102029.66;10294195;28;20097;-75
2022/04/13 22:25:54;;;;;;;18.55;9.18;;;;;;;12.59;85.59;102025.06;10292375;28;20396;-75
2022/04/13 22:30:54;;;;;;;19.67;8.77;;;;;;;12.57;87.36;102011.66;10292900;28;20030;-75
2022/04/13 22:35:55;;;;;;;18.58;9.18;;;;;;;12.62;86.06;102015.69;10293557;28;20038;-76
2022/04/13 22:40:55;;;;;;;11.90;7.47;;;;;;;12.59;84.67;102018.78;10303057;28;20122;-75
2022/04/13 22:45:55;;;;;;;12.07;8.32;;;;;;;12.51;86.35;102014.28;10302873;28;20123;-75
2022/04/13 22:50:56;;;;;;;17.23;8.32;;;;;;;12.47;86.11;102012.94;10302072;28;20082;-75
2022/04/13 22:55:56;;;;;;;10.30;8.45;;;;;;;12.42;87.15;102013.50;10301446;28;20038;-75